Time;durP1;ratioP1;P1;durP2;ratioP2;P2;SDS_P1;SDS_P2;PMS_P1;PMS_P2;Temp;Humidity;BMP_temperature;BMP_pressure;BME280_temperature;BME280_humidity;BME280_pressure;Samples;Min_cycle;Max_cycle;Signal;HPM_P1;HPM_P2
2023/08/30 00:00:04;;;;;;;16.27;13.45;;;12.30;99.90;;;;;;4923737;29;20030;-81
2023/08/30 00:02:30;;;;;;;14.48;12.85;;;12.30;99.90;;;;;;4923572;29;20083;-81
2023/08/30 00:04:59;;;;;;;14.43;12.93;;;12.20;99.90;;;;;;4920400;29;20333;-81
2023/08/30 00:07:25;;;;;;;14.77;13.18;;;12.20;99.90;;;;;;4921717;29;20020;-81
2023/08/30 00:09:50;;;;;;;15.02;13.15;;;12.30;99.90;;;;;;4923284;29;20047;-81
2023/08/30 00:12:16;;;;;;;14.77;12.73;;;12.20;99.90;;;;;;4923840;29;20123;-81
2023/08/30 00:14:41;;;;;;;14.38;12.93;;;12.20;99.90;;;;;;4923827;29;20067;-81
2023/08/30 00:17:07;;;;;;;14.40;12.98;;;12.20;99.90;;;;;;4925386;29;20040;-81
2023/08/30 00:19:33;;;;;;;15.75;13.82;;;12.20;99.90;;;;;;4928542;29;20455;-81
2023/08/30 00:21:58;;;;;;;13.88;12.48;;;12.20;99.90;;;;;;4926334;29;20071;-81
2023/08/30 00:24:24;;;;;;;15.70;13.57;;;12.20;99.90;;;;;;4925640;29;21006;-81
2023/08/30 00:26:49;;;;;;;15.77;13.60;;;12.20;99.90;;;;;;4918666;29;20511;-81
2023/08/30 00:29:15;;;;;;;16.58;13.63;;;12.20;99.90;;;;;;4919161;29;20034;-81
2023/08/30 00:31:40;;;;;;;14.82;13.32;;;12.20;99.90;;;;;;4919636;29;20036;-81
2023/08/30 00:34:06;;;;;;;14.77;13.23;;;12.20;99.90;;;;;;4921365;29;20032;-81
2023/08/30 00:36:32;;;;;;;15.65;13.95;;;12.20;99.90;;;;;;4923599;29;20087;-81
2023/08/30 00:38:57;;;;;;;17.45;14.00;;;12.20;99.90;;;;;;4924192;29;20042;-81
2023/08/30 00:41:23;;;;;;;15.75;14.15;;;12.20;99.90;;;;;;4922854;29;20054;-81
2023/08/30 00:43:49;;;;;;;17.15;14.35;;;12.20;99.90;;;;;;4923758;29;20030;-81
2023/08/30 00:46:15;;;;;;;15.70;13.68;;;12.10;99.90;;;;;;4923766;29;20023;-81
2023/08/30 00:48:41;;;;;;;16.40;13.18;;;12.20;99.90;;;;;;4921375;29;20031;-81
2023/08/30 00:51:07;;;;;;;14.88;13.27;;;12.10;99.90;;;;;;4924629;29;20079;-81
2023/08/30 00:53:32;;;;;;;15.63;13.82;;;12.20;99.90;;;;;;4922972;29;20142;-81
2023/08/30 00:55:58;;;;;;;15.05;13.48;;;12.20;99.90;;;;;;4921712;29;20565;-81
2023/08/30 00:58:26;;;;;;;14.70;13.05;;;12.20;99.90;;;;;;4922320;29;20099;-81
2023/08/30 01:00:52;;;;;;;15.02;13.18;;;12.20;99.90;;;;;;4922565;29;20939;-81
2023/08/30 01:03:20;;;;;;;14.98;13.38;;;12.10;99.90;;;;;;4923394;29;20032;-81
2023/08/30 01:05:45;;;;;;;14.52;12.85;;;12.20;99.90;;;;;;4923797;29;20103;-81
2023/08/30 01:08:11;;;;;;;14.57;13.07;;;12.20;99.90;;;;;;4922094;29;21010;-81
2023/08/30 01:11:05;;;;;;;15.10;13.60;;;12.20;99.90;;;;;;4922711;29;20028;-81
2023/08/30 01:13:32;;;;;;;16.33;13.63;;;12.20;99.90;;;;;;4917552;29;20044;-81
2023/08/30 01:15:59;;;;;;;15.25;12.68;;;12.20;99.90;;;;;;4921982;29;20064;-81
2023/08/30 01:18:28;;;;;;;14.13;12.63;;;12.10;99.90;;;;;;4923870;29;20672;-80
2023/08/30 01:20:55;;;;;;;13.50;12.10;;;12.20;99.90;;;;;;4921754;29;20043;-81
2023/08/30 01:23:47;;;;;;;14.13;12.63;;;12.20;99.90;;;;;;4924933;29;20028;-81
2023/08/30 01:26:32;;;;;;;14.55;12.27;;;12.20;99.90;;;;;;4921547;29;20126;-81
2023/08/30 01:29:01;;;;;;;13.43;12.13;;;12.20;99.90;;;;;;4923435;29;20028;-81
2023/08/30 01:31:29;;;;;;;16.25;11.98;;;12.20;99.90;;;;;;4924526;29;20043;-81
2023/08/30 01:33:56;;;;;;;13.10;11.80;;;12.10;99.90;;;;;;4922237;29;20047;-81
2023/08/30 01:36:22;;;;;;;14.55;12.00;;;12.10;99.90;;;;;;4921066;29;20053;-81
2023/08/30 01:38:49;;;;;;;12.88;11.10;;;12.10;99.90;;;;;;4921538;29;20024;-81
2023/08/30 01:41:15;;;;;;;13.38;11.68;;;12.10;99.90;;;;;;4921634;29;20403;-81
2023/08/30 01:43:42;;;;;;;12.20;10.98;;;12.10;99.90;;;;;;4923986;29;20032;-81
2023/08/30 01:46:08;;;;;;;12.82;11.25;;;12.10;99.90;;;;;;4926689;29;20028;-81
2023/08/30 01:48:35;;;;;;;12.32;10.88;;;12.10;99.90;;;;;;4923663;29;20068;-81
2023/08/30 01:51:01;;;;;;;13.77;10.60;;;12.10;99.90;;;;;;4923117;29;20047;-81
2023/08/30 01:53:28;;;;;;;12.43;10.77;;;12.10;99.90;;;;;;4924033;29;20027;-81
2023/08/30 01:55:54;;;;;;;11.90;10.65;;;12.00;99.90;;;;;;4922020;29;20040;-81
2023/08/30 01:58:20;;;;;;;12.63;9.90;;;12.00;99.90;;;;;;4921965;29;20028;-81
2023/08/30 02:00:46;;;;;;;12.32;11.05;;;12.10;99.90;;;;;;4924166;29;20040;-81
2023/08/30 02:03:13;;;;;;;12.38;10.27;;;12.00;99.90;;;;;;4925954;29;20023;-81
2023/08/30 02:06:04;;;;;;;12.27;10.32;;;12.00;99.90;;;;;;4923244;29;20443;-81
2023/08/30 02:08:48;;;;;;;11.30;10.20;;;12.00;99.90;;;;;;4923253;29;20047;-81
2023/08/30 02:11:19;;;;;;;11.43;10.23;;;12.00;99.90;;;;;;4924042;29;20031;-81
2023/08/30 02:13:45;;;;;;;11.07;9.98;;;12.00;99.90;;;;;;4922768;29;20098;-81
2023/08/30 02:16:12;;;;;;;11.55;10.32;;;12.00;99.90;;;;;;4921175;29;20395;-81
2023/08/30 02:18:38;;;;;;;11.25;10.00;;;12.00;99.90;;;;;;4922082;29;20040;-81
2023/08/30 02:21:04;;;;;;;10.70;9.63;;;12.00;99.90;;;;;;4921273;29;20043;-81
2023/08/30 02:23:29;;;;;;;12.85;10.35;;;11.90;99.90;;;;;;4921096;29;20036;-81
2023/08/30 02:25:58;;;;;;;10.90;9.80;;;12.00;99.90;;;;;;4920417;29;20024;-81
2023/08/30 02:28:23;;;;;;;12.55;9.88;;;12.00;99.90;;;;;;4917340;29;20028;-81
2023/08/30 02:30:53;;;;;;;10.95;9.85;;;12.00;99.90;;;;;;4919913;29;21376;-81
2023/08/30 02:33:18;;;;;;;10.23;9.23;;;12.00;99.90;;;;;;4918781;29;20491;-81
2023/08/30 02:35:45;;;;;;;10.85;9.77;;;12.00;99.90;;;;;;4921257;29;20031;-81
2023/08/30 02:38:10;;;;;;;12.80;10.77;;;12.00;99.90;;;;;;4920956;29;20087;-81
2023/08/30 02:40:36;;;;;;;11.07;9.90;;;12.00;99.90;;;;;;4921584;29;20027;-81
2023/08/30 02:43:01;;;;;;;12.82;10.07;;;12.00;99.90;;;;;;4922686;29;20035;-81
2023/08/30 02:45:27;;;;;;;14.32;11.43;;;12.00;99.90;;;;;;4919314;29;20027;-81
2023/08/30 02:47:56;;;;;;;11.52;9.57;;;12.00;99.90;;;;;;4918060;29;20106;-81
2023/08/30 02:50:22;;;;;;;10.60;9.50;;;12.00;99.90;;;;;;4920308;29;20032;-81
2023/08/30 02:52:48;;;;;;;12.50;9.52;;;11.90;99.90;;;;;;4920058;29;20038;-81
2023/08/30 02:55:13;;;;;;;12.98;10.63;;;11.90;99.90;;;;;;4919592;29;20028;-81
2023/08/30 02:57:39;;;;;;;11.10;9.85;;;11.90;99.90;;;;;;4922159;29;20110;-81
2023/08/30 03:00:05;;;;;;;11.88;9.75;;;11.90;99.90;;;;;;4920852;29;20075;-80
2023/08/30 03:02:33;;;;;;;12.90;9.98;;;11.90;99.90;;;;;;4918478;29;20051;-81
2023/08/30 03:04:59;;;;;;;11.18;9.98;;;11.90;99.90;;;;;;4920336;29;20032;-81
2023/08/30 03:07:25;;;;;;;11.48;10.10;;;12.00;99.90;;;;;;4917716;29;20034;-81
2023/08/30 03:09:54;;;;;;;10.65;9.57;;;12.00;99.90;;;;;;4921098;29;20055;-81
2023/08/30 03:12:20;;;;;;;10.68;9.57;;;12.00;99.90;;;;;;4920594;29;20032;-81
2023/08/30 03:14:45;;;;;;;11.98;10.00;;;12.00;99.90;;;;;;4917574;29;20039;-81
2023/08/30 03:17:11;;;;;;;15.63;10.45;;;12.00;99.90;;;;;;4919924;29;20096;-81
2023/08/30 03:19:36;;;;;;;11.82;9.25;;;12.00;99.90;;;;;;4919634;29;20028;-81
2023/08/30 03:22:02;;;;;;;11.88;9.48;;;12.00;99.90;;;;;;4918329;29;20162;-81
2023/08/30 03:24:28;;;;;;;11.13;9.43;;;12.00;99.90;;;;;;4918761;29;20035;-81
2023/08/30 03:26:53;;;;;;;11.32;8.98;;;12.00;99.90;;;;;;4918336;29;20043;-81
2023/08/30 03:29:19;;;;;;;10.52;9.43;;;12.00;99.90;;;;;;4918249;29;20020;-81
2023/08/30 03:31:44;;;;;;;11.35;10.00;;;12.00;99.90;;;;;;4918562;29;20039;-81
2023/08/30 03:34:10;;;;;;;10.15;9.15;;;12.00;99.90;;;;;;4919333;29;20078;-81
2023/08/30 03:36:37;;;;;;;11.77;9.13;;;12.00;99.90;;;;;;4919235;29;20028;-81
2023/08/30 03:39:02;;;;;;;12.38;9.38;;;12.00;99.90;;;;;;4919036;29;20046;-81
2023/08/30 03:41:28;;;;;;;9.82;8.82;;;12.00;99.90;;;;;;4919166;29;20032;-81
2023/08/30 03:43:53;;;;;;;10.07;9.07;;;12.00;99.90;;;;;;4918950;29;20119;-81
2023/08/30 03:46:19;;;;;;;9.77;8.77;;;12.00;99.90;;;;;;4918554;29;20479;-81
2023/08/30 03:48:44;;;;;;;11.20;9.05;;;12.00;99.90;;;;;;4918993;29;20032;-81
2023/08/30 03:51:10;;;;;;;10.43;8.55;;;12.00;99.90;;;;;;4919622;29;20042;-81
2023/08/30 03:53:36;;;;;;;13.68;8.80;;;12.00;99.90;;;;;;4920874;29;22236;-81
2023/08/30 03:56:03;;;;;;;9.77;8.35;;;11.90;99.90;;;;;;4922177;29;20111;-81
2023/08/30 03:58:28;;;;;;;13.38;9.00;;;12.00;99.90;;;;;;4920901;29;20087;-81
2023/08/30 04:00:54;;;;;;;10.98;9.40;;;11.90;99.90;;;;;;4922272;29;20147;-81
2023/08/30 04:03:20;;;;;;;10.35;8.65;;;11.90;99.90;;;;;;4924769;29;20126;-81
2023/08/30 04:05:45;;;;;;;10.18;8.55;;;12.00;99.90;;;;;;4922334;29;20027;-81
2023/08/30 04:08:11;;;;;;;12.10;8.73;;;12.00;99.90;;;;;;4920276;29;20032;-81
2023/08/30 04:10:41;;;;;;;11.10;9.10;;;12.00;99.90;;;;;;4921786;29;20043;-77
2023/08/30 04:13:09;;;;;;;9.55;8.43;;;12.00;99.90;;;;;;4917002;29;20035;-77
2023/08/30 04:15:35;;;;;;;10.07;8.80;;;12.00;99.90;;;;;;4915827;29;20031;-77
2023/08/30 04:18:02;;;;;;;11.18;8.80;;;12.00;99.90;;;;;;4917197;29;20763;-80
2023/08/30 04:20:28;;;;;;;10.35;9.20;;;12.00;99.90;;;;;;4915277;29;20028;-80
2023/08/30 04:22:55;;;;;;;11.00;9.25;;;12.00;99.90;;;;;;4914673;29;20031;-80
2023/08/30 04:25:20;;;;;;;12.77;9.85;;;12.00;99.90;;;;;;4915085;29;20394;-80
2023/08/30 04:27:46;;;;;;;11.40;9.40;;;12.00;99.90;;;;;;4915727;29;20032;-80
2023/08/30 04:30:12;;;;;;;14.13;9.32;;;12.00;99.90;;;;;;4917494;29;20064;-80
2023/08/30 04:32:37;;;;;;;10.95;8.85;;;12.00;99.90;;;;;;4918469;29;20395;-80
2023/08/30 04:35:03;;;;;;;9.80;8.80;;;12.00;99.90;;;;;;4916953;29;20060;-80
2023/08/30 04:37:32;;;;;;;10.32;9.30;;;12.00;99.90;;;;;;4919401;29;20798;-80
2023/08/30 04:39:58;;;;;;;10.13;9.07;;;12.00;99.90;;;;;;4918791;29;20459;-80
2023/08/30 04:42:24;;;;;;;10.50;8.43;;;12.00;99.90;;;;;;4919741;29;20032;-80
2023/08/30 04:44:51;;;;;;;9.60;8.60;;;12.00;99.90;;;;;;4923327;29;20415;-80
2023/08/30 04:47:16;;;;;;;9.50;8.50;;;12.00;99.90;;;;;;4921118;29;20031;-80
2023/08/30 04:49:42;;;;;;;10.05;9.05;;;12.00;99.90;;;;;;4922470;29;20866;-80
2023/08/30 04:52:08;;;;;;;10.82;8.45;;;12.00;99.90;;;;;;4920068;29;20514;-80
2023/08/30 04:54:33;;;;;;;10.52;8.63;;;12.00;99.90;;;;;;4916949;29;20702;-81
2023/08/30 04:56:59;;;;;;;10.07;9.07;;;12.00;99.90;;;;;;4922005;29;20028;-80
2023/08/30 04:59:24;;;;;;;9.73;8.65;;;12.00;99.90;;;;;;4919540;29;20048;-80
2023/08/30 05:01:51;;;;;;;11.38;9.27;;;12.00;99.90;;;;;;4922206;29;20031;-80
2023/08/30 05:04:17;;;;;;;9.45;8.48;;;12.00;99.90;;;;;;4920583;29;20087;-80
2023/08/30 05:06:43;;;;;;;9.52;8.63;;;12.00;99.90;;;;;;4917601;29;20032;-80
2023/08/30 05:09:08;;;;;;;11.40;8.40;;;12.10;99.90;;;;;;4920408;29;20027;-80
2023/08/30 05:11:34;;;;;;;10.25;8.40;;;12.10;99.90;;;;;;4919896;29;20043;-80
2023/08/30 05:13:59;;;;;;;9.60;8.27;;;12.10;99.90;;;;;;4921535;29;20032;-80
2023/08/30 05:16:28;;;;;;;9.52;8.60;;;12.10;99.90;;;;;;4921150;29;20114;-80
2023/08/30 05:18:54;;;;;;;11.95;7.97;;;12.10;99.90;;;;;;4920689;29;20031;-80
2023/08/30 05:21:19;;;;;;;8.90;7.78;;;12.10;99.90;;;;;;4921636;29;20102;-86
2023/08/30 05:23:46;;;;;;;10.02;8.77;;;12.10;99.90;;;;;;4922709;29;20028;-81
2023/08/30 05:26:12;;;;;;;11.50;7.53;;;12.10;99.90;;;;;;4920339;29;20020;-81
2023/08/30 05:28:38;;;;;;;8.68;7.68;;;12.10;99.90;;;;;;4920447;29;20035;-81
2023/08/30 05:31:04;;;;;;;8.90;7.43;;;12.10;99.90;;;;;;4920588;29;20028;-80
2023/08/30 05:33:29;;;;;;;8.18;7.25;;;12.10;99.90;;;;;;4920323;29;20140;-81
2023/08/30 05:35:55;;;;;;;9.27;7.20;;;12.20;99.90;;;;;;4919537;29;20439;-81
2023/08/30 05:38:21;;;;;;;8.00;7.20;;;12.20;99.90;;;;;;4920343;29;20448;-82
2023/08/30 05:40:46;;;;;;;12.35;7.95;;;12.20;99.90;;;;;;4919549;29;21391;-81
2023/08/30 05:43:12;;;;;;;8.40;7.53;;;12.20;99.90;;;;;;4920343;29;20035;-80
2023/08/30 05:45:38;;;;;;;8.13;7.32;;;12.30;99.90;;;;;;4920236;29;20039;-80
2023/08/30 05:48:04;;;;;;;9.20;8.05;;;12.30;99.90;;;;;;4918142;29;20040;-81
2023/08/30 05:50:29;;;;;;;8.50;7.70;;;12.30;99.90;;;;;;4919273;29;20606;-81
2023/08/30 05:52:55;;;;;;;8.60;7.80;;;12.30;99.90;;;;;;4922737;29;20167;-82
2023/08/30 05:55:21;;;;;;;9.57;7.72;;;12.30;99.90;;;;;;4918713;29;20035;-81
2023/08/30 05:57:46;;;;;;;8.70;7.55;;;12.30;99.90;;;;;;4919828;29;20039;-81
2023/08/30 06:00:13;;;;;;;7.40;6.70;;;12.40;99.90;;;;;;4923074;29;21339;-80
2023/08/30 06:02:38;;;;;;;7.95;7.15;;;12.40;99.90;;;;;;4921734;29;20048;-80
2023/08/30 06:05:04;;;;;;;8.25;7.45;;;12.40;99.90;;;;;;4920815;29;20114;-80
2023/08/30 06:07:30;;;;;;;8.07;7.28;;;12.40;99.90;;;;;;4920779;29;20139;-81
2023/08/30 06:09:55;;;;;;;8.60;7.78;;;12.50;99.90;;;;;;4921557;29;20024;-81
2023/08/30 06:12:21;;;;;;;8.00;7.20;;;12.50;99.90;;;;;;4920315;29;20044;-81
2023/08/30 06:14:51;;;;;;;9.00;8.02;;;12.60;99.90;;;;;;4916356;29;20028;-81
2023/08/30 06:17:17;;;;;;;7.88;7.07;;;12.60;99.90;;;;;;4916018;29;20444;-82
2023/08/30 06:19:43;;;;;;;8.45;7.55;;;12.70;99.90;;;;;;4915327;29;20067;-80
2023/08/30 06:22:08;;;;;;;8.63;7.57;;;12.70;99.90;;;;;;4913504;29;20073;-80
2023/08/30 06:24:34;;;;;;;9.10;7.53;;;12.80;99.90;;;;;;4912385;29;20032;-81
2023/08/30 06:26:59;;;;;;;8.20;7.40;;;12.90;99.90;;;;;;4911928;29;20098;-82
2023/08/30 06:29:25;;;;;;;9.75;7.60;;;12.90;99.90;;;;;;4913015;29;20047;-82
2023/08/30 06:31:51;;;;;;;8.07;7.28;;;12.90;99.90;;;;;;4912451;29;20032;-83
2023/08/30 06:34:16;;;;;;;8.38;7.45;;;12.90;99.90;;;;;;4910102;29;20051;-81
2023/08/30 06:36:42;;;;;;;8.15;7.22;;;12.90;99.90;;;;;;4912906;29;20023;-81
2023/08/30 06:39:07;;;;;;;10.80;6.88;;;13.00;99.90;;;;;;4917449;29;20653;-81
2023/08/30 06:41:33;;;;;;;8.07;7.28;;;13.00;99.90;;;;;;4916639;29;20034;-83
2023/08/30 06:43:59;;;;;;;7.78;7.07;;;13.00;99.90;;;;;;4918181;29;20423;-80
2023/08/30 06:46:24;;;;;;;8.80;7.55;;;13.00;99.90;;;;;;4918001;29;20028;-81
2023/08/30 06:48:50;;;;;;;8.48;6.97;;;13.10;99.90;;;;;;4917515;29;20075;-81
2023/08/30 06:51:15;;;;;;;8.30;7.30;;;13.10;99.90;;;;;;4917174;29;20032;-81
2023/08/30 06:53:41;;;;;;;8.40;7.20;;;13.10;99.90;;;;;;4919099;29;21356;-81
2023/08/30 06:56:06;;;;;;;6.80;6.13;;;13.10;99.90;;;;;;4918874;29;20816;-81
2023/08/30 06:58:32;;;;;;;8.57;7.65;;;13.20;99.90;;;;;;4917533;29;20034;-81
2023/08/30 07:00:58;;;;;;;8.85;7.53;;;13.20;99.90;;;;;;4917405;29;20043;-81
2023/08/30 07:03:24;;;;;;;8.05;7.25;;;13.20;99.90;;;;;;4917598;29;20460;-80
2023/08/30 07:05:51;;;;;;;8.75;7.28;;;13.20;99.90;;;;;;4920940;29;20123;-81
2023/08/30 07:08:17;;;;;;;9.20;7.82;;;13.20;99.90;;;;;;4917478;29;20028;-87
2023/08/30 07:10:43;;;;;;;8.93;7.65;;;13.30;99.90;;;;;;4916171;29;20031;-80
2023/08/30 07:13:12;;;;;;;9.45;7.65;;;13.30;99.90;;;;;;4917179;29;20479;-80
2023/08/30 07:15:39;;;;;;;8.32;7.45;;;13.30;99.90;;;;;;4917942;29;20040;-81
2023/08/30 07:18:06;;;;;;;8.40;7.60;;;13.30;99.90;;;;;;4918130;29;20028;-80
2023/08/30 07:20:31;;;;;;;9.88;8.27;;;13.30;99.90;;;;;;4916897;29;20919;-80
2023/08/30 07:22:57;;;;;;;10.77;8.65;;;13.40;99.90;;;;;;4918642;29;20039;-80
2023/08/30 07:25:23;;;;;;;9.88;8.40;;;13.40;99.90;;;;;;4915930;29;20036;-80
2023/08/30 07:27:48;;;;;;;9.43;8.27;;;13.40;99.90;;;;;;4915435;29;20091;-80
2023/08/30 07:30:14;;;;;;;10.10;8.77;;;13.40;99.90;;;;;;4918495;29;20055;-80
2023/08/30 07:32:40;;;;;;;11.20;8.23;;;13.40;99.90;;;;;;4916282;29;20523;-80
2023/08/30 07:35:06;;;;;;;12.85;8.63;;;13.50;99.90;;;;;;4917649;29;20019;-80
2023/08/30 07:37:32;;;;;;;9.18;8.27;;;13.50;99.90;;;;;;4917296;29;20468;-80
2023/08/30 07:39:57;;;;;;;10.50;8.70;;;13.50;99.90;;;;;;4914505;29;20536;-80
2023/08/30 07:42:23;;;;;;;9.48;8.57;;;13.50;99.90;;;;;;4915542;29;20118;-80
2023/08/30 07:44:49;;;;;;;10.70;9.18;;;13.60;99.90;;;;;;4915385;29;20059;-80
2023/08/30 07:47:14;;;;;;;10.70;9.60;;;13.60;99.90;;;;;;4915829;29;20043;-80
2023/08/30 07:49:41;;;;;;;10.23;8.65;;;13.60;99.90;;;;;;4914295;29;20024;-80
2023/08/30 07:52:10;;;;;;;11.68;8.10;;;13.70;99.90;;;;;;4914348;29;20040;-81
2023/08/30 07:54:36;;;;;;;9.75;8.75;;;13.80;99.90;;;;;;4914495;29;20038;-80
2023/08/30 07:57:02;;;;;;;10.70;8.15;;;13.80;99.90;;;;;;4914512;29;20024;-80
2023/08/30 07:59:28;;;;;;;11.00;8.65;;;13.90;99.90;;;;;;4916705;29;20031;-80
2023/08/30 08:01:53;;;;;;;10.02;8.98;;;14.00;99.90;;;;;;4916004;29;20028;-80
2023/08/30 08:04:19;;;;;;;8.77;7.93;;;14.00;99.90;;;;;;4915277;29;20114;-80
2023/08/30 08:06:44;;;;;;;9.32;8.43;;;14.10;99.90;;;;;;4915600;29;20052;-80
2023/08/30 08:09:10;;;;;;;8.35;7.53;;;14.20;99.90;;;;;;4915936;29;20028;-83
2023/08/30 08:11:35;;;;;;;9.80;8.57;;;14.40;99.90;;;;;;4914720;29;20411;-83
2023/08/30 08:14:01;;;;;;;9.77;8.73;;;14.50;99.90;;;;;;4916188;29;20027;-83
2023/08/30 08:16:27;;;;;;;8.80;7.45;;;14.50;99.90;;;;;;4918620;29;20107;-80
2023/08/30 08:18:53;;;;;;;8.38;7.55;;;14.70;99.90;;;;;;4919999;29;20110;-81
2023/08/30 08:21:18;;;;;;;8.52;7.68;;;14.80;99.90;;;;;;4924188;29;20043;-80
2023/08/30 08:23:44;;;;;;;9.55;7.95;;;14.90;99.90;;;;;;4926491;29;20031;-79
2023/08/30 08:26:09;;;;;;;7.97;7.18;;;15.00;99.90;;;;;;4923541;29;20027;-80
2023/08/30 08:28:35;;;;;;;8.05;7.25;;;15.20;99.90;;;;;;4920769;29;20079;-77
2023/08/30 08:31:00;;;;;;;7.85;6.47;;;15.30;99.90;;;;;;4918812;29;20043;-78
2023/08/30 08:33:26;;;;;;;8.27;7.35;;;15.50;99.90;;;;;;4918438;29;20016;-78
2023/08/30 08:35:51;;;;;;;6.78;6.00;;;15.60;99.90;;;;;;4918088;29;20062;-78
2023/08/30 08:38:17;;;;;;;6.97;5.57;;;15.80;99.90;;;;;;4917291;29;20111;-78
2023/08/30 08:40:43;;;;;;;8.23;5.82;;;16.00;99.90;;;;;;4922917;29;20055;-81
2023/08/30 08:43:12;;;;;;;10.43;6.13;;;16.10;99.90;;;;;;4927023;29;20032;-81
2023/08/30 08:45:37;;;;;;;6.78;5.68;;;16.30;99.90;;;;;;4926326;29;20871;-81
2023/08/30 08:48:07;;;;;;;7.03;5.35;;;16.40;99.90;;;;;;4927002;29;20028;-81
2023/08/30 08:50:33;;;;;;;6.07;5.47;;;16.60;99.90;;;;;;4927846;29;20040;-81
2023/08/30 08:53:01;;;;;;;5.55;4.65;;;16.60;99.90;;;;;;4930744;29;20762;-80
2023/08/30 08:55:29;;;;;;;6.28;5.50;;;16.60;99.90;;;;;;4930078;29;20032;-80
2023/08/30 08:57:56;;;;;;;6.85;5.40;;;16.60;99.90;;;;;;4929076;29;20463;-80
2023/08/30 09:00:23;;;;;;;8.43;6.00;;;16.60;99.90;;;;;;4925254;29;20060;-80
2023/08/30 09:02:51;;;;;;;8.35;5.45;;;16.70;99.90;;;;;;4923976;29;20027;-80
2023/08/30 09:05:18;;;;;;;6.43;5.50;;;16.70;99.90;;;;;;4921200;29;20039;-80
2023/08/30 09:07:44;;;;;;;5.43;4.72;;;16.70;99.90;;;;;;4918327;29;20028;-80
2023/08/30 09:10:10;;;;;;;6.05;5.40;;;16.80;99.90;;;;;;4916900;29;20064;-81
2023/08/30 09:12:36;;;;;;;6.63;5.05;;;16.70;99.90;;;;;;4916135;29;20138;-80
2023/08/30 09:15:02;;;;;;;8.05;5.13;;;16.60;99.90;;;;;;4917091;29;20036;-80
2023/08/30 09:17:38;;;;;;;5.30;4.55;;;16.50;99.90;;;;;;4916304;29;20024;-80
2023/08/30 09:20:11;;;;;;;6.70;4.88;;;16.50;99.90;;;;;;4915396;29;20084;-80
2023/08/30 09:22:40;;;;;;;6.43;5.03;;;16.30;99.90;;;;;;4914245;29;20048;-80
2023/08/30 09:25:11;;;;;;;8.13;5.43;;;16.20;99.90;;;;;;4915482;29;20035;-80
2023/08/30 09:27:41;;;;;;;7.45;4.93;;;16.20;99.90;;;;;;4913887;29;20063;-80
2023/08/30 09:30:08;;;;;;;4.70;4.13;;;16.20;99.90;;;;;;4916262;29;20492;-80
2023/08/30 09:32:41;;;;;;;6.53;4.13;;;16.40;99.90;;;;;;4914518;29;21086;-80
2023/08/30 09:35:08;;;;;;;4.55;3.85;;;16.90;99.90;;;;;;4916011;29;20207;-80
2023/08/30 09:37:34;;;;;;;5.78;3.88;;;17.10;99.90;;;;;;4915221;29;20095;-81
2023/08/30 09:40:00;;;;;;;5.70;3.75;;;17.30;99.90;;;;;;4914648;29;20028;-81
2023/08/30 09:42:26;;;;;;;4.70;4.20;;;17.60;99.90;;;;;;4915790;29;20058;-80
2023/08/30 09:44:52;;;;;;;4.40;3.05;;;17.80;99.90;;;;;;4922391;29;20028;-81
2023/08/30 09:47:18;;;;;;;3.92;3.28;;;18.00;99.90;;;;;;4921638;29;20020;-81
2023/08/30 09:49:47;;;;;;;4.68;3.25;;;18.20;99.90;;;;;;4914934;29;20031;-81
2023/08/30 09:52:15;;;;;;;3.35;2.50;;;18.30;99.90;;;;;;4919963;29;20031;-81
2023/08/30 09:54:43;;;;;;;3.75;2.63;;;18.30;99.90;;;;;;4923584;29;20054;-81
2023/08/30 09:57:10;;;;;;;3.72;2.75;;;18.50;99.90;;;;;;4918074;29;20035;-81
2023/08/30 09:59:37;;;;;;;5.55;2.72;;;18.70;99.90;;;;;;4924092;29;20024;-80
2023/08/30 10:02:05;;;;;;;3.13;2.45;;;18.70;99.90;;;;;;4921800;29;20053;-81
2023/08/30 10:04:31;;;;;;;5.60;2.50;;;19.00;99.90;;;;;;4922263;29;20047;-81
2023/08/30 10:06:58;;;;;;;5.53;2.80;;;19.30;99.90;;;;;;4918325;29;20028;-80
2023/08/30 10:09:24;;;;;;;4.07;2.88;;;19.20;99.90;;;;;;4923844;29;20376;-81
2023/08/30 10:11:50;;;;;;;2.97;2.22;;;19.20;99.90;;;;;;4920774;29;20118;-81
2023/08/30 10:14:17;;;;;;;3.95;2.55;;;19.30;99.90;;;;;;4923546;29;20099;-80
2023/08/30 10:16:44;;;;;;;3.97;2.40;;;19.50;99.90;;;;;;4922882;29;20043;-80
2023/08/30 10:19:30;;;;;;;3.90;2.30;;;19.60;99.90;;;;;;4921435;29;20139;-81
2023/08/30 10:21:59;;;;;;;3.13;2.50;;;19.90;99.90;;;;;;4923324;29;20032;-81
2023/08/30 10:24:25;;;;;;;3.15;2.47;;;20.40;99.90;;;;;;4912258;29;20036;-80
2023/08/30 10:26:52;;;;;;;3.42;2.20;;;20.80;99.90;;;;;;4922557;29;20050;-81
2023/08/30 10:29:19;;;;;;;3.63;2.25;;;20.70;99.90;;;;;;4924042;29;20125;-81
2023/08/30 10:31:45;;;;;;;5.68;2.30;;;20.80;99.90;;;;;;4924488;29;21411;-80
2023/08/30 10:34:16;;;;;;;4.57;1.90;;;20.70;99.90;;;;;;4923049;29;20024;-80
2023/08/30 10:36:42;;;;;;;3.40;2.00;;;20.30;99.90;;;;;;4922832;29;20488;-80
2023/08/30 10:39:13;;;;;;;5.28;2.30;;;20.20;99.90;;;;;;4917288;29;20475;-81
2023/08/30 10:41:53;;;;;;;3.70;2.08;;;19.80;99.90;;;;;;4915793;29;20082;-80
2023/08/30 10:44:21;;;;;;;2.92;1.80;;;19.50;99.90;;;;;;4914499;29;20066;-80
2023/08/30 10:46:55;;;;;;;2.92;1.90;;;19.40;99.90;;;;;;4913344;29;20024;-80
2023/08/30 10:49:22;;;;;;;3.95;1.90;;;19.10;99.90;;;;;;4911935;29;20155;-80
2023/08/30 10:51:58;;;;;;;4.70;2.05;;;19.00;99.90;;;;;;4911325;29;20088;-80
2023/08/30 10:54:24;;;;;;;3.03;2.03;;;18.90;99.90;;;;;;4913205;29;21492;-80
2023/08/30 10:57:01;;;;;;;3.67;1.98;;;18.90;99.90;;;;;;4915953;29;20063;-80
2023/08/30 10:59:29;;;;;;;5.18;1.95;;;18.90;99.90;;;;;;4919150;29;20020;-80
2023/08/30 11:01:57;;;;;;;3.72;1.55;;;18.80;99.90;;;;;;4917998;29;20051;-79
2023/08/30 11:04:23;;;;;;;2.63;1.40;;;18.80;99.90;;;;;;4918595;29;20034;-79
2023/08/30 11:06:50;;;;;;;2.88;2.00;;;18.70;99.90;;;;;;4918826;29;20036;-80
2023/08/30 11:09:18;;;;;;;2.78;1.73;;;18.50;99.90;;;;;;4917870;29;20583;-77
2023/08/30 11:11:45;;;;;;;4.43;1.70;;;18.30;99.90;;;;;;4915906;29;20043;-82
2023/08/30 11:14:11;;;;;;;2.67;1.80;;;18.10;99.90;;;;;;4916496;29;20024;-83
2023/08/30 11:16:38;;;;;;;2.65;1.70;;;18.00;99.90;;;;;;4916922;29;20031;-84
2023/08/30 11:19:04;;;;;;;3.20;2.08;;;17.90;99.90;;;;;;4916706;29;20028;-84
2023/08/30 11:21:35;;;;;;;3.58;1.83;;;17.90;99.90;;;;;;4917001;29;20040;-83
2023/08/30 11:24:03;;;;;;;4.50;2.25;;;17.80;99.90;;;;;;4916482;29;20031;-83
2023/08/30 11:26:28;;;;;;;2.38;1.88;;;17.90;99.90;;;;;;4915724;29;20035;-83
2023/08/30 11:28:54;;;;;;;2.63;1.60;;;18.10;99.90;;;;;;4917168;29;20403;-85
2023/08/30 11:31:22;;;;;;;2.90;1.52;;;18.40;99.90;;;;;;4915104;29;20127;-82
2023/08/30 11:33:52;;;;;;;3.95;1.60;;;18.70;99.90;;;;;;4916195;29;20027;-78
2023/08/30 11:36:21;;;;;;;4.78;1.70;;;19.00;99.90;;;;;;4915255;29;20032;-77
2023/08/30 11:38:46;;;;;;;2.03;1.63;;;19.30;99.90;;;;;;4917919;29;20031;-79
2023/08/30 11:41:12;;;;;;;2.63;1.70;;;19.90;99.90;;;;;;4913518;29;20518;-79
2023/08/30 11:43:38;;;;;;;4.47;1.92;;;20.30;99.90;;;;;;4917154;29;20028;-79
2023/08/30 11:46:04;;;;;;;2.90;1.45;;;20.80;99.90;;;;;;4915399;29;21527;-79
2023/08/30 11:48:29;;;;;;;2.13;1.20;;;21.20;99.90;;;;;;4914083;29;20040;-79
2023/08/30 11:50:55;;;;;;;2.13;1.58;;;21.40;99.90;;;;;;4917142;29;20119;-79
2023/08/30 11:53:21;;;;;;;2.38;1.60;;;21.40;99.90;;;;;;4920125;29;20976;-79
2023/08/30 11:55:47;;;;;;;3.25;1.50;;;21.10;99.90;;;;;;4921096;29;20204;-82
2023/08/30 11:58:12;;;;;;;4.40;1.55;;;20.70;99.90;;;;;;4920298;29;20140;-83
2023/08/30 12:00:38;;;;;;;2.83;1.73;;;20.30;99.90;;;;;;4917909;29;20464;-83
2023/08/30 12:03:05;;;;;;;2.60;1.67;;;20.10;99.90;;;;;;4921362;29;20515;-83
2023/08/30 12:05:33;;;;;;;2.08;1.45;;;19.80;99.90;;;;;;4919556;29;20028;-83
2023/08/30 12:08:00;;;;;;;2.63;1.75;;;19.60;99.90;;;;;;4921932;29;20610;-83
2023/08/30 12:10:28;;;;;;;2.22;1.40;;;19.70;99.90;;;;;;4922461;29;20029;-79
2023/08/30 12:12:53;;;;;;;5.30;1.50;;;19.90;99.90;;;;;;4919896;29;20044;-81
2023/08/30 12:15:19;;;;;;;1.25;1.13;;;20.40;99.90;;;;;;4918345;29;20023;-78
2023/08/30 12:17:45;;;;;;;2.00;1.38;;;20.80;99.90;;;;;;4918784;29;20028;-78
2023/08/30 12:20:23;;;;;;;2.67;1.20;;;21.30;99.90;;;;;;4919969;29;20126;-78
2023/08/30 12:22:50;;;;;;;2.00;1.30;;;21.80;99.90;;;;;;4919189;29;20032;-78
2023/08/30 12:25:26;;;;;;;3.92;1.40;;;22.30;99.90;;;;;;4917703;29;20046;-78
2023/08/30 12:27:52;;;;;;;2.42;1.20;;;22.40;99.90;;;;;;4916180;29;20630;-78
2023/08/30 12:30:19;;;;;;;3.50;1.23;;;22.10;99.90;;;;;;4916212;29;20032;-78
2023/08/30 12:32:45;;;;;;;1.83;1.38;;;22.10;99.90;;;;;;4918676;29;20491;-78
2023/08/30 12:35:11;;;;;;;2.55;1.40;;;21.60;99.90;;;;;;4918388;29;20066;-78
2023/08/30 12:37:36;;;;;;;2.13;1.35;;;21.30;99.90;;;;;;4917719;29;20635;-78